Time;durP1;ratioP1;P1;durP2;ratioP2;P2;SDS_P1;SDS_P2;PMS_P1;PMS_P2;Temp;Humidity;BMP_temperature;BMP_pressure;BME280_temperature;BME280_humidity;BME280_pressure;Samples;Min_cycle;Max_cycle;Signal;HPM_P1;HPM_P2
2023/12/31 00:02:26;;;;;;;15.00;7.00;;;;;;;2.67;78.73;100736.80;106547;1291;71259;-60
2023/12/31 00:05:12;;;;;;;12.30;6.80;;;;;;;2.65;78.49;100738.31;106531;1289;59338;-59
2023/12/31 00:07:58;;;;;;;15.80;6.60;;;;;;;2.47;78.42;100739.19;106766;1286;59285;-60
2023/12/31 00:10:44;;;;;;;12.70;6.80;;;;;;;2.37;78.71;100739.33;106618;1289;73148;-60
2023/12/31 00:13:30;;;;;;;13.50;7.10;;;;;;;2.32;78.89;100739.25;106422;1291;68443;-58
2023/12/31 00:16:16;;;;;;;9.90;6.20;;;;;;;2.25;78.81;100737.41;106640;1286;72548;-60
2023/12/31 00:19:02;;;;;;;16.30;7.00;;;;;;;2.19;78.86;100732.86;106593;1288;59165;-60
2023/12/31 00:21:48;;;;;;;13.20;6.80;;;;;;;2.14;78.81;100730.04;106656;1288;58984;-59
2023/12/31 00:24:34;;;;;;;12.90;6.60;;;;;;;2.08;78.90;100728.40;106557;1287;75472;-60
2023/12/31 00:27:21;;;;;;;11.90;6.40;;;;;;;2.02;78.71;100732.55;106618;1288;68369;-60
2023/12/31 00:30:08;;;;;;;13.10;6.50;;;;;;;1.95;78.88;100732.25;106556;1286;72608;-60
2023/12/31 00:32:54;;;;;;;12.50;6.40;;;;;;;1.89;78.86;100738.39;106605;1285;59229;-60
2023/12/31 00:35:40;;;;;;;11.30;6.30;;;;;;;1.80;78.92;100738.20;106610;1285;59714;-60
2023/12/31 00:38:26;;;;;;;12.90;7.00;;;;;;;1.74;78.96;100737.22;106557;1286;73214;-59
2023/12/31 00:41:12;;;;;;;17.00;6.70;;;;;;;1.66;78.95;100737.39;106634;1285;68035;-59
2023/12/31 00:43:58;;;;;;;8.90;5.80;;;;;;;1.59;78.88;100744.54;106561;1285;71131;-58
2023/12/31 00:46:44;;;;;;;13.10;7.40;;;;;;;1.52;78.79;100750.36;106550;1285;59305;-60
2023/12/31 00:49:30;;;;;;;14.30;7.40;;;;;;;1.43;78.93;100751.84;106592;1285;59589;-60
2023/12/31 00:52:16;;;;;;;16.30;7.90;;;;;;;1.34;79.02;100758.26;106557;1286;73966;-58
2023/12/31 00:55:02;;;;;;;17.60;9.30;;;;;;;1.27;79.08;100758.42;106603;1285;68917;-60
2023/12/31 00:57:48;;;;;;;;;;;;;;;1.21;78.95;100758.80;106656;1285;72422;-59
2023/12/31 01:00:34;;;;;;;17.90;8.60;;;;;;;1.14;78.90;100762.02;102670;1290;5003825;-59
2023/12/31 01:03:20;;;;;;;13.80;8.60;;;;;;;1.07;78.85;100764.39;106617;1285;59215;-60
2023/12/31 01:06:07;;;;;;;12.90;8.40;;;;;;;1.00;78.87;100765.94;106602;1286;75093;-59
2023/12/31 01:08:54;;;;;;;13.50;8.10;;;;;;;0.95;78.78;100765.64;106544;1287;66299;-59
2023/12/31 01:11:40;;;;;;;13.20;7.40;;;;;;;0.89;78.73;100775.00;106476;1284;72535;-60
2023/12/31 01:14:26;;;;;;;17.90;8.30;;;;;;;0.78;78.72;100775.73;106539;1286;59141;-59
2023/12/31 01:17:18;;;;;;;14.20;8.40;;;;;;;0.72;78.91;100773.70;102647;1288;5003550;-59
2023/12/31 01:20:14;;;;;;;16.60;8.40;;;;;;;0.68;78.96;100778.52;106452;1285;61003;-58
2023/12/31 01:23:00;;;;;;;;;;;;;;;0.64;78.98;100777.21;106564;1285;73291;-60
2023/12/31 01:25:46;;;;;;;;;;;;;;;0.62;79.17;100774.80;106570;1285;66221;-60
2023/12/31 01:28:31;;;;;;;;;;;;;;;0.62;79.30;100770.40;106550;1285;71427;-60
2023/12/31 01:31:18;;;;;;;;;;;;;;;0.62;79.31;100772.25;106555;1286;58995;-59
2023/12/31 01:34:04;;;;;;;12.80;6.70;;;;;;;0.62;79.23;100775.64;106596;1286;59033;-60
2023/12/31 01:36:50;;;;;;;14.40;8.00;;;;;;;0.66;79.14;100772.52;106555;1285;74533;-60
2023/12/31 01:39:36;;;;;;;20.10;8.40;;;;;;;0.66;79.33;100772.19;106595;1286;67889;-60
2023/12/31 01:42:22;;;;;;;14.40;7.90;;;;;;;0.62;79.14;100771.05;106573;1285;72558;-59
2023/12/31 01:45:08;;;;;;;17.70;9.10;;;;;;;0.55;79.16;100771.05;106527;1285;59071;-60
2023/12/31 01:47:55;;;;;;;14.50;8.30;;;;;;;0.53;79.17;100767.59;106593;1285;59825;-59
2023/12/31 01:50:42;;;;;;;12.80;7.70;;;;;;;0.48;79.19;100769.02;106581;1285;74376;-59
2023/12/31 01:53:29;;;;;;;14.80;7.90;;;;;;;0.44;79.23;100766.88;106521;1286;68359;-60
2023/12/31 01:56:15;;;;;;;15.00;8.90;;;;;;;0.41;79.24;100771.02;106540;1285;71441;-58
2023/12/31 01:59:03;;;;;;;18.50;8.60;;;;;;;0.39;79.38;100770.45;106550;1284;59090;-59
2023/12/31 02:01:50;;;;;;;16.00;9.90;;;;;;;0.41;79.00;100772.73;106617;1285;60077;-58
2023/12/31 02:04:37;;;;;;;18.40;8.70;;;;;;;0.45;78.89;100777.08;106641;1285;75238;-59
2023/12/31 02:07:24;;;;;;;16.80;9.10;;;;;;;0.46;78.93;100778.79;106727;1284;67432;-57
2023/12/31 02:10:10;;;;;;;16.20;10.00;;;;;;;0.47;79.38;100778.31;106673;1285;71416;-58
2023/12/31 02:12:56;;;;;;;19.40;10.80;;;;;;;0.49;79.28;100772.27;106642;1285;58987;-59
2023/12/31 02:15:42;;;;;;;;;;;;;;;0.52;79.39;100766.39;106700;1285;59530;-59
2023/12/31 02:18:29;;;;;;;17.50;9.40;;;;;;;0.57;79.66;100765.65;106651;1285;72629;-59
2023/12/31 02:21:14;;;;;;;18.10;10.00;;;;;;;0.63;79.44;100766.51;106639;1285;68382;-58
2023/12/31 02:24:01;;;;;;;18.00;10.50;;;;;;;0.68;79.44;100764.62;106700;1284;71386;-59
2023/12/31 02:26:47;;;;;;;14.50;9.30;;;;;;;0.75;79.87;100759.70;106675;1285;59178;-59
2023/12/31 02:29:33;;;;;;;;;;;;;;;0.82;79.39;100766.83;106709;1285;59080;-59
2023/12/31 02:32:19;;;;;;;;;;;;;;;0.90;80.22;100761.77;106699;1285;73321;-60
2023/12/31 02:35:05;;;;;;;22.70;10.60;;;;;;;1.01;80.76;100762.06;106549;1286;67205;-60
2023/12/31 02:37:51;;;;;;;25.90;11.40;;;;;;;1.09;81.40;100762.39;106666;1285;71302;-59
2023/12/31 02:40:37;;;;;;;23.30;10.90;;;;;;;1.18;80.73;100765.01;106624;1288;59063;-58
2023/12/31 02:43:23;;;;;;;17.70;9.80;;;;;;;1.25;80.35;100763.48;106653;1285;60078;-59
2023/12/31 02:46:09;;;;;;;17.20;10.90;;;;;;;1.34;81.16;100757.23;106673;1285;73240;-60
2023/12/31 02:48:55;;;;;;;21.80;9.70;;;;;;;1.45;81.68;100758.69;106608;1285;68376;-59
2023/12/31 02:51:41;;;;;;;25.60;11.90;;;;;;;1.57;80.63;100758.61;106627;1286;71192;-60
2023/12/31 02:54:27;;;;;;;20.40;11.90;;;;;;;1.62;80.54;100759.38;106272;1285;243361;-59
2023/12/31 02:57:13;;;;;;;22.80;11.40;;;;;;;1.66;80.64;100757.27;106698;1285;59192;-57
2023/12/31 02:59:59;;;;;;;24.30;10.60;;;;;;;1.74;80.79;100751.66;106654;1285;73325;-59
2023/12/31 03:02:45;;;;;;;17.30;10.70;;;;;;;1.81;80.97;100750.64;106648;1285;67178;-60
2023/12/31 03:05:31;;;;;;;25.30;11.80;;;;;;;1.88;80.67;100750.79;106618;1285;71041;-59
2023/12/31 03:08:17;;;;;;;22.60;12.00;;;;;;;1.92;80.62;100747.13;106661;1285;59371;-60
2023/12/31 03:11:03;;;;;;;19.70;11.70;;;;;;;1.99;80.79;100743.72;106643;1285;58948;-60
2023/12/31 03:13:49;;;;;;;25.20;13.00;;;;;;;2.08;80.92;100743.04;106655;1285;72269;-60
2023/12/31 03:16:35;;;;;;;27.90;12.50;;;;;;;2.15;81.01;100738.23;106524;1286;67527;-59
2023/12/31 03:19:21;;;;;;;20.70;12.00;;;;;;;2.23;81.04;100737.35;106441;1284;71188;-60
2023/12/31 03:22:07;;;;;;;24.60;12.40;;;;;;;2.28;81.10;100729.82;106579;1286;59183;-59
2023/12/31 03:24:53;;;;;;;25.10;12.70;;;;;;;2.34;81.00;100727.38;106556;1284;59711;-60
2023/12/31 03:27:40;;;;;;;22.40;12.20;;;;;;;2.39;81.08;100727.47;106612;1286;74338;-60
2023/12/31 03:30:25;;;;;;;;;;;;;;;2.43;81.04;100728.05;106493;1286;67328;-65
2023/12/31 03:33:11;;;;;;;;;;;;;;;2.47;81.32;100726.77;106572;1285;71957;-58
2023/12/31 03:35:57;;;;;;;26.30;11.30;;;;;;;2.52;81.41;100728.39;106516;1288;58999;-60
2023/12/31 03:38:43;;;;;;;25.40;11.80;;;;;;;2.54;81.26;100726.91;106550;1284;59947;-60
2023/12/31 03:41:29;;;;;;;19.60;11.70;;;;;;;2.57;81.18;100724.25;106610;1285;73071;-60
2023/12/31 03:44:15;;;;;;;27.40;11.90;;;;;;;2.60;81.17;100725.48;106557;1285;69252;-59
2023/12/31 03:47:01;;;;;;;20.90;11.10;;;;;;;2.63;81.25;100721.42;106371;1285;168194;-60
2023/12/31 03:49:47;;;;;;;21.20;12.20;;;;;;;2.66;81.29;100714.85;106581;1284;59268;-59
2023/12/31 03:52:33;;;;;;;20.30;10.80;;;;;;;2.70;81.41;100703.84;106577;1285;59840;-59
2023/12/31 03:55:19;;;;;;;23.20;12.00;;;;;;;2.75;81.39;100708.17;106658;1285;72886;-60
2023/12/31 03:58:06;;;;;;;19.30;10.20;;;;;;;2.77;81.09;100701.25;106603;1285;68158;-59
2023/12/31 04:00:52;;;;;;;20.00;11.10;;;;;;;2.76;81.25;100696.28;106507;1284;72328;-59
2023/12/31 04:03:39;;;;;;;20.60;10.80;;;;;;;2.77;81.37;100694.27;106541;1286;59290;-60
2023/12/31 04:06:25;;;;;;;22.40;11.50;;;;;;;2.78;81.50;100690.20;106542;1285;59115;-60
2023/12/31 04:09:11;;;;;;;19.80;10.10;;;;;;;2.78;81.47;100687.31;106654;1283;72387;-60
2023/12/31 04:11:57;;;;;;;19.90;10.90;;;;;;;2.77;81.49;100686.44;106629;1286;67548;-60
2023/12/31 04:14:43;;;;;;;18.50;9.10;;;;;;;2.75;81.53;100681.80;106633;1284;71387;-60
2023/12/31 04:17:29;;;;;;;21.00;9.20;;;;;;;2.75;81.24;100680.96;106561;1285;58897;-59
2023/12/31 04:20:15;;;;;;;21.90;10.10;;;;;;;2.68;81.30;100681.17;106570;1285;59252;-58
2023/12/31 04:23:03;;;;;;;19.50;10.90;;;;;;;2.66;81.64;100675.36;106475;1285;73736;-60
2023/12/31 04:25:49;;;;;;;15.90;9.70;;;;;;;2.71;81.68;100675.27;106617;1284;68657;-60
2023/12/31 04:28:35;;;;;;;17.10;9.90;;;;;;;2.75;81.53;100674.48;32588;1286;10002505;-59
2023/12/31 04:31:21;;;;;;;20.30;11.10;;;;;;;2.77;81.71;100670.43;106562;1285;59910;-60
2023/12/31 04:34:07;;;;;;;16.10;9.40;;;;;;;2.81;81.74;100669.65;106612;1285;75168;-60
2023/12/31 04:36:53;;;;;;;14.50;9.00;;;;;;;2.83;81.81;100666.79;106649;1285;67505;-59
2023/12/31 04:39:39;;;;;;;23.50;11.10;;;;;;;2.87;81.72;100664.98;106575;1286;72470;-60
2023/12/31 04:42:25;;;;;;;21.10;11.80;;;;;;;2.90;81.67;100662.46;106572;1285;58373;-60
2023/12/31 04:45:12;;;;;;;23.40;12.10;;;;;;;2.91;82.03;100663.34;106523;1285;60215;-59
2023/12/31 04:47:58;;;;;;;24.00;12.80;;;;;;;2.91;82.67;100660.95;106604;1284;73373;-58
2023/12/31 04:50:43;;;;;;;25.20;13.90;;;;;;;2.92;82.25;100662.86;106598;1285;68669;-59
2023/12/31 04:53:33;;;;;;;24.90;13.50;;;;;;;2.96;82.05;100660.36;106531;1285;72537;-59
2023/12/31 04:56:20;;;;;;;27.60;12.60;;;;;;;3.01;82.13;100658.05;106604;1285;59048;-60
2023/12/31 04:59:06;;;;;;;32.00;14.10;;;;;;;3.05;82.04;100653.00;106607;1285;59210;-60
2023/12/31 05:01:53;;;;;;;26.80;14.70;;;;;;;3.05;82.74;100650.11;106647;1285;75093;-59
2023/12/31 05:04:42;;;;;;;28.00;14.50;;;;;;;3.03;82.57;100643.77;106641;1285;67448;-60
2023/12/31 05:07:28;;;;;;;31.40;15.20;;;;;;;3.00;82.67;100642.89;106599;1285;72569;-60
2023/12/31 05:10:14;;;;;;;29.90;14.70;;;;;;;2.99;82.25;100646.45;106513;1285;59382;-59
2023/12/31 05:13:01;;;;;;;26.80;15.80;;;;;;;2.99;82.64;100640.99;105738;1285;60292;-59
2023/12/31 05:15:47;;;;;;;28.30;16.00;;;;;;;2.97;82.47;100642.34;105236;1285;76850;-57
2023/12/31 05:18:34;;;;;;;28.10;15.10;;;;;;;2.94;82.93;100646.20;105239;1286;67695;-58
2023/12/31 05:21:20;;;;;;;29.90;15.90;;;;;;;2.90;82.85;100642.05;106564;1285;73955;-60
2023/12/31 05:24:07;;;;;;;30.30;15.90;;;;;;;2.87;82.62;100636.55;106618;1285;59187;-59
2023/12/31 05:26:52;;;;;;;32.60;15.50;;;;;;;2.83;82.24;100630.87;106518;1285;59151;-60
2023/12/31 05:29:38;;;;;;;24.90;15.70;;;;;;;2.78;82.45;100627.39;106572;1285;73360;-60
2023/12/31 05:32:24;;;;;;;28.70;15.70;;;;;;;2.76;82.37;100629.73;106597;1285;67441;-59
2023/12/31 05:35:10;;;;;;;24.50;14.80;;;;;;;2.72;82.43;100630.35;106628;1285;71446;-60
2023/12/31 05:38:06;;;;;;;24.50;14.80;;;;;;;2.67;82.30;100635.20;99180;1284;10002316;-60
2023/12/31 05:41:13;;;;;;;24.30;15.10;;;;;;;2.60;82.00;100631.36;62346;1285;20059511;-59
2023/12/31 05:43:59;;;;;;;22.60;13.90;;;;;;;2.53;82.28;100628.89;106538;1285;60158;-58
2023/12/31 05:46:45;;;;;;;21.90;12.30;;;;;;;2.49;82.35;100626.27;106486;1285;72801;-60
2023/12/31 05:49:35;;;;;;;22.30;13.80;;;;;;;2.44;82.09;100622.61;106544;1284;59037;-59
2023/12/31 05:52:21;;;;;;;22.50;14.20;;;;;;;2.39;82.27;100619.61;106550;1284;59259;-58
2023/12/31 05:55:08;;;;;;;30.40;14.80;;;;;;;2.32;82.20;100612.70;106510;1285;73265;-60
2023/12/31 05:57:55;;;;;;;24.20;13.50;;;;;;;2.29;82.37;100613.66;106646;1285;67144;-60
2023/12/31 06:00:41;;;;;;;22.10;13.50;;;;;;;2.24;82.34;100616.48;106506;1284;72491;-59
2023/12/31 06:03:27;;;;;;;22.40;12.80;;;;;;;2.19;82.33;100609.74;106574;1285;59272;-60
2023/12/31 06:06:13;;;;;;;21.30;11.60;;;;;;;2.14;82.06;100606.75;106452;1288;59368;-59
2023/12/31 06:08:59;;;;;;;28.30;13.00;;;;;;;2.06;82.16;100606.30;106580;1286;73799;-60
2023/12/31 06:11:46;;;;;;;25.60;13.30;;;;;;;2.03;82.39;100607.77;106570;1285;68599;-61
2023/12/31 06:14:32;;;;;;;27.70;12.80;;;;;;;2.02;82.42;100611.67;106584;1284;71455;-60
2023/12/31 06:17:17;;;;;;;21.80;12.80;;;;;;;2.03;82.47;100610.15;106613;1284;59411;-59
2023/12/31 06:20:06;;;;;;;21.10;12.40;;;;;;;2.04;82.52;100611.19;106590;1285;60142;-60
2023/12/31 06:22:52;;;;;;;22.50;13.10;;;;;;;2.05;82.45;100611.39;106678;1284;75687;-59
2023/12/31 06:25:38;;;;;;;21.10;13.00;;;;;;;2.06;82.58;100613.45;106302;1285;330290;-59
2023/12/31 06:28:24;;;;;;;20.50;12.90;;;;;;;2.07;82.67;100610.40;106620;1285;70244;-60
2023/12/31 06:31:10;;;;;;;29.60;12.00;;;;;;;2.09;83.01;100609.72;106565;1284;59409;-59
2023/12/31 06:33:56;;;;;;;25.80;13.10;;;;;;;2.12;84.42;100609.80;106583;1285;59014;-60
2023/12/31 06:36:42;;;;;;;24.10;13.10;;;;;;;2.17;83.82;100608.70;106569;1285;74482;-59
2023/12/31 06:39:29;;;;;;;26.20;13.10;;;;;;;2.22;83.54;100606.23;106616;1285;67223;-60
2023/12/31 06:42:15;;;;;;;25.90;13.60;;;;;;;2.23;83.58;100599.27;106657;1285;71341;-60
2023/12/31 06:45:01;;;;;;;24.00;12.70;;;;;;;2.23;84.01;100602.33;106620;1284;59368;-60
2023/12/31 06:47:47;;;;;;;30.20;14.40;;;;;;;2.19;83.19;100603.45;106589;1285;60034;-59
2023/12/31 06:50:33;;;;;;;24.00;12.80;;;;;;;2.13;83.38;100598.57;106602;1285;74034;-58
2023/12/31 06:53:20;;;;;;;24.10;11.00;;;;;;;2.06;84.10;100600.52;106622;1285;68295;-59
2023/12/31 06:56:07;;;;;;;28.90;12.10;;;;;;;1.98;84.15;100608.04;106586;1285;72596;-60
2023/12/31 06:58:53;;;;;;;21.00;11.30;;;;;;;1.94;84.84;100608.29;106640;1285;59192;-59
2023/12/31 07:01:39;;;;;;;21.90;12.30;;;;;;;1.88;84.31;100612.61;106474;1285;59813;-60
2023/12/31 07:04:26;;;;;;;23.70;10.80;;;;;;;1.85;83.68;100613.40;106574;1285;73031;-59
2023/12/31 07:07:12;;;;;;;23.80;12.10;;;;;;;1.85;84.90;100620.85;106618;1285;67413;-60
2023/12/31 07:09:58;;;;;;;17.50;11.40;;;;;;;1.80;85.17;100622.30;106632;1284;72510;-59
2023/12/31 07:12:44;;;;;;;19.80;11.40;;;;;;;1.77;84.57;100623.76;106592;1285;59383;-59
2023/12/31 07:15:30;;;;;;;20.80;11.10;;;;;;;1.73;86.31;100623.67;106623;1285;60259;-60
2023/12/31 07:18:16;;;;;;;20.60;11.30;;;;;;;1.71;86.41;100622.63;106517;1285;74507;-60
2023/12/31 07:21:04;;;;;;;22.40;12.50;;;;;;;1.72;86.86;100624.17;106540;1284;67543;-60
2023/12/31 07:23:50;;;;;;;19.40;12.10;;;;;;;1.74;86.01;100621.66;106616;1284;70763;-59
2023/12/31 07:26:36;;;;;;;22.50;12.30;;;;;;;1.74;85.17;100620.82;106530;1285;59050;-60
2023/12/31 07:29:22;;;;;;;21.80;12.00;;;;;;;1.74;85.82;100623.70;106505;1285;59137;-58
2023/12/31 07:32:07;;;;;;;23.50;12.60;;;;;;;1.73;84.60;100624.02;106539;1285;72199;-59
2023/12/31 07:34:53;;;;;;;25.20;13.40;;;;;;;1.75;84.18;100621.34;106598;1285;67478;-60
2023/12/31 07:37:39;;;;;;;26.80;13.80;;;;;;;1.77;84.23;100617.32;106580;1284;70938;-60
2023/12/31 07:40:25;;;;;;;24.50;13.10;;;;;;;1.78;85.00;100615.30;106652;1284;58950;-59
2023/12/31 07:43:11;;;;;;;20.70;13.60;;;;;;;1.80;84.14;100611.77;106729;1284;59912;-59
2023/12/31 07:45:58;;;;;;;20.20;13.00;;;;;;;1.84;83.99;100608.95;106710;1285;72492;-60
2023/12/31 07:48:44;;;;;;;;;;;;;;;1.87;84.08;100605.60;106545;1285;69298;-60
2023/12/31 07:51:30;;;;;;;;;;;;;;;1.89;84.22;100606.67;106763;1285;72608;-59
2023/12/31 07:57:39;;;;;;;26.40;12.30;;;;;;;1.96;84.31;100607.48;106620;1284;58981;-60
2023/12/31 08:00:26;;;;;;;19.90;12.60;;;;;;;1.99;84.37;100603.80;106432;1284;73270;-56
2023/12/31 08:03:12;;;;;;;27.20;11.60;;;;;;;2.01;84.63;100598.23;106655;1285;68466;-57
2023/12/31 08:05:58;;;;;;;28.70;14.00;;;;;;;2.04;84.46;100597.92;106592;1284;72793;-58
2023/12/31 08:08:43;;;;;;;32.20;16.10;;;;;;;2.06;84.45;100598.81;106581;1284;59383;-57
2023/12/31 08:11:29;;;;;;;30.30;15.60;;;;;;;2.09;85.03;100599.87;106626;1289;59233;-54
2023/12/31 08:14:15;;;;;;;27.00;14.30;;;;;;;2.10;85.33;100602.61;105529;1285;74374;-57
2023/12/31 08:37:08;;;;;;;28.40;15.30;;;;;;;2.45;86.15;100603.39;84995;1293;966535;-88
2023/12/31 08:39:54;;;;;;;36.50;17.60;;;;;;;2.51;85.64;100601.80;104380;1293;61399;-56
2023/12/31 08:42:41;;;;;;;30.20;16.60;;;;;;;2.56;85.45;100600.17;104455;1293;73097;-58
2023/12/31 08:45:27;;;;;;;27.30;16.20;;;;;;;2.59;86.58;100600.05;104497;1293;67238;-57
2023/12/31 08:48:13;;;;;;;;;;;;;;;2.62;86.88;100596.67;104480;1296;71279;-58
2023/12/31 08:51:00;;;;;;;27.60;15.40;;;;;;;2.63;86.39;100595.33;104421;1294;61187;-60
2023/12/31 08:53:46;;;;;;;33.10;16.30;;;;;;;2.66;86.16;100592.30;104489;1292;60562;-59
2023/12/31 08:56:32;;;;;;;33.90;17.10;;;;;;;2.70;86.50;100587.44;104461;1293;73275;-58
2023/12/31 08:59:18;;;;;;;33.70;17.30;;;;;;;2.76;85.95;100587.86;104434;1294;69996;-58
2023/12/31 09:02:05;;;;;;;28.10;16.60;;;;;;;2.83;86.62;100582.69;104404;1294;75439;-57
2023/12/31 09:04:52;;;;;;;33.20;18.40;;;;;;;2.96;86.20;100578.11;104469;1293;61143;-57
2023/12/31 09:07:40;;;;;;;31.80;17.00;;;;;;;3.10;86.77;100578.98;104467;1293;60944;-58
2023/12/31 09:10:26;;;;;;;32.60;17.90;;;;;;;3.22;86.51;100585.08;104478;1294;73184;-57
2023/12/31 09:13:12;;;;;;;;;;;;;;;3.29;86.46;100581.95;104425;1297;67984;-59
2023/12/31 09:15:58;;;;;;;30.40;17.20;;;;;;;3.35;86.49;100585.77;104387;1295;71308;-59
2023/12/31 09:18:45;;;;;;;26.70;15.70;;;;;;;3.40;86.51;100585.15;104407;1294;61239;-56
2023/12/31 09:21:31;;;;;;;30.30;16.70;;;;;;;3.50;86.66;100582.39;104370;1293;60836;-56
2023/12/31 09:24:17;;;;;;;31.00;17.60;;;;;;;3.58;86.64;100577.55;104397;1294;75544;-58
2023/12/31 09:27:07;;;;;;;33.00;17.40;;;;;;;3.67;86.29;100571.30;104479;1293;67253;-58
2023/12/31 09:29:53;;;;;;;29.30;17.50;;;;;;;3.79;86.24;100568.88;104437;1295;71450;-56
2023/12/31 09:32:40;;;;;;;;;;;;;;;3.89;86.09;100561.66;104479;1297;61260;-57
2023/12/31 09:35:27;;;;;;;32.00;17.30;;;;;;;3.98;86.08;100556.98;104482;1294;59757;-58
2023/12/31 09:38:13;;;;;;;35.30;18.60;;;;;;;3.98;86.13;100556.64;104409;1294;73393;-57
2023/12/31 09:41:00;;;;;;;38.50;18.40;;;;;;;3.97;86.16;100555.61;104462;1294;67502;-56
2023/12/31 09:43:50;;;;;;;29.90;17.50;;;;;;;4.03;86.18;100549.86;104441;1295;76410;-57
2023/12/31 09:46:38;;;;;;;29.10;17.30;;;;;;;4.10;86.18;100546.86;104439;1294;61261;-57
2023/12/31 09:49:25;;;;;;;27.30;17.40;;;;;;;4.16;86.22;100551.17;104365;1294;63237;-58
2023/12/31 09:52:13;;;;;;;30.10;17.60;;;;;;;4.21;86.23;100552.89;104410;1294;73445;-55
2023/12/31 09:55:00;;;;;;;32.40;17.30;;;;;;;4.27;86.16;100546.30;104406;1294;71131;-57
2023/12/31 09:57:47;;;;;;;23.90;16.60;;;;;;;4.34;86.16;100538.52;105872;1294;70317;-56
2023/12/31 10:00:33;;;;;;;29.10;17.00;;;;;;;4.44;86.35;100534.48;105825;1293;59601;-56
2023/12/31 10:03:20;;;;;;;25.20;15.10;;;;;;;4.57;86.26;100530.32;105893;1294;59088;-56
2023/12/31 10:06:06;;;;;;;;;;;;;;;4.71;86.11;100524.07;105910;1293;73392;-55
2023/12/31 10:08:55;;;;;;;;;;;;;;;4.81;86.12;100517.13;105838;1294;68305;-56
2023/12/31 10:11:41;;;;;;;27.10;16.10;;;;;;;4.99;86.28;100516.89;105715;1294;71072;-56
2023/12/31 10:14:27;;;;;;;26.60;15.50;;;;;;;5.22;86.23;100515.95;105815;1294;59839;-56
2023/12/31 10:17:13;;;;;;;27.00;14.50;;;;;;;5.52;85.72;100505.97;105866;1293;60286;-56
2023/12/31 10:20:02;;;;;;;19.00;14.00;;;;;;;5.71;85.13;100504.29;105842;1293;74630;-59
2023/12/31 10:22:48;;;;;;;24.10;14.30;;;;;;;5.99;85.77;100504.52;105869;1294;67404;-56
2023/12/31 10:25:34;;;;;;;19.70;13.10;;;;;;;6.19;85.63;100501.97;105867;1293;72547;-55
2023/12/31 10:28:21;;;;;;;26.50;13.50;;;;;;;6.37;85.70;100501.08;105878;1293;58958;-56
2023/12/31 10:31:07;;;;;;;22.80;12.50;;;;;;;6.55;85.52;100495.23;105855;1293;59103;-56
2023/12/31 10:33:54;;;;;;;25.10;14.20;;;;;;;6.75;85.69;100488.68;105863;1294;73228;-56
2023/12/31 10:36:40;;;;;;;24.90;13.10;;;;;;;6.98;85.43;100487.91;105846;1293;67553;-56
2023/12/31 10:39:28;;;;;;;21.20;13.20;;;;;;;7.07;85.07;100490.11;105724;1294;71212;-56
2023/12/31 10:42:14;;;;;;;26.70;12.60;;;;;;;7.22;84.34;100487.14;105863;1294;59076;-56
2023/12/31 10:45:01;;;;;;;20.20;12.30;;;;;;;7.28;83.63;100486.07;105872;1294;59046;-57
2023/12/31 10:47:53;;;;;;;21.60;12.30;;;;;;;7.48;85.25;100478.76;105843;1294;73396;-56
2023/12/31 10:50:40;;;;;;;22.00;11.90;;;;;;;7.74;85.00;100475.68;105814;1294;67411;-56
2023/12/31 10:53:30;;;;;;;20.50;12.20;;;;;;;7.76;84.59;100469.66;105804;1293;72162;-55
2023/12/31 10:56:17;;;;;;;19.40;12.50;;;;;;;7.74;84.34;100474.30;105781;1294;58704;-56
2023/12/31 10:59:05;;;;;;;22.10;11.90;;;;;;;7.85;84.86;100469.05;105789;1293;58728;-56
2023/12/31 11:01:52;;;;;;;20.30;11.50;;;;;;;8.00;84.68;100464.31;105807;1294;74359;-56
2023/12/31 11:04:38;;;;;;;25.40;12.30;;;;;;;8.08;84.54;100455.32;105801;1293;67345;-56
2023/12/31 11:07:26;;;;;;;13.90;10.20;;;;;;;8.18;83.78;100451.12;105796;1294;70153;-56
2023/12/31 11:10:12;;;;;;;22.50;11.80;;;;;;;8.19;83.74;100444.92;105770;1294;59294;-56
2023/12/31 11:13:01;;;;;;;18.70;12.50;;;;;;;8.20;83.17;100445.25;105851;1294;59317;-56
2023/12/31 11:15:50;;;;;;;21.80;12.00;;;;;;;8.15;82.79;100438.77;105833;1294;73370;-56
2023/12/31 11:19:09;;;;;;;22.70;12.70;;;;;;;7.95;82.44;100429.16;105855;1293;68531;-55
2023/12/31 11:22:09;;;;;;;23.70;11.70;;;;;;;7.82;83.48;100415.02;105825;1293;72167;-56
2023/12/31 11:24:57;;;;;;;21.40;11.20;;;;;;;7.84;83.88;100409.34;105825;1293;59156;-57
2023/12/31 11:27:45;;;;;;;18.50;10.80;;;;;;;7.88;82.04;100396.61;105812;1294;60022;-57
2023/12/31 11:30:54;;;;;;;18.90;10.90;;;;;;;7.79;82.76;100395.33;105831;1294;73380;-56
2023/12/31 11:33:40;;;;;;;19.30;10.70;;;;;;;7.66;81.98;100387.20;105724;1293;67234;-57
2023/12/31 11:36:26;;;;;;;19.10;11.50;;;;;;;7.61;82.81;100383.47;105746;1294;72229;-56
2023/12/31 11:39:16;;;;;;;17.60;10.80;;;;;;;7.71;83.50;100376.54;105824;1293;59074;-56
2023/12/31 11:42:10;;;;;;;17.60;10.90;;;;;;;7.80;83.88;100371.12;105851;1293;59749;-56
2023/12/31 11:44:57;;;;;;;20.60;10.10;;;;;;;7.80;82.77;100370.27;105856;1297;72957;-57
2023/12/31 11:47:45;;;;;;;19.80;9.70;;;;;;;7.84;83.59;100367.30;105857;1293;68397;-56
2023/12/31 11:50:31;;;;;;;21.20;10.00;;;;;;;7.96;83.89;100358.60;105845;1294;72629;-56
2023/12/31 11:53:18;;;;;;;19.00;9.80;;;;;;;8.34;83.93;100353.08;105864;1293;59326;-56
2023/12/31 11:56:04;;;;;;;16.80;9.60;;;;;;;8.81;84.39;100346.48;105880;1294;60776;-56
2023/12/31 11:58:51;;;;;;;13.80;9.40;;;;;;;9.48;84.55;100337.73;105881;1294;73843;-57
2023/12/31 12:01:39;;;;;;;12.20;7.80;;;;;;;10.00;83.14;100337.52;105908;1294;67566;-56
2023/12/31 12:04:26;;;;;;;14.10;8.70;;;;;;;10.21;82.33;100333.87;105842;1293;72547;-56
2023/12/31 12:07:13;;;;;;;14.50;8.60;;;;;;;10.39;83.40;100328.02;105881;1293;59001;-57
2023/12/31 12:09:59;;;;;;;16.40;8.20;;;;;;;10.43;82.64;100318.98;105904;1294;60009;-56
2023/12/31 12:12:46;;;;;;;13.10;7.70;;;;;;;10.24;82.62;100309.54;105932;1293;74260;-57
2023/12/31 12:15:36;;;;;;;15.60;7.90;;;;;;;10.09;82.53;100307.91;105728;1294;68575;-56
2023/12/31 12:18:22;;;;;;;13.90;7.80;;;;;;;9.94;82.69;100295.25;105886;1294;71406;-56
2023/12/31 12:21:08;;;;;;;;;;;;;;;9.74;81.71;100291.36;105876;1293;59091;-57
2023/12/31 12:23:54;;;;;;;;;;;;;;;9.50;81.65;100282.63;105908;1294;59786;-56
2023/12/31 12:26:41;;;;;;;16.70;7.60;;;;;;;9.33;81.80;100273.84;105892;1294;73127;-54
2023/12/31 12:29:27;;;;;;;;;;;;;;;9.18;81.25;100268.75;105898;1294;68501;-56
2023/12/31 12:32:34;;;;;;;11.40;7.30;;;;;;;9.00;81.34;100269.70;47311;1295;20071872;-56
2023/12/31 12:35:21;;;;;;;11.50;7.60;;;;;;;8.91;81.26;100270.69;105867;1294;63904;-57
2023/12/31 12:38:08;;;;;;;14.60;7.80;;;;;;;8.85;81.23;100269.77;105914;1294;59001;-57
2023/12/31 12:41:00;;;;;;;10.70;7.00;;;;;;;8.76;81.32;100271.80;105751;1299;59072;-55
2023/12/31 12:43:50;;;;;;;13.80;7.80;;;;;;;8.57;79.89;100271.89;105883;1294;73268;-55
2023/12/31 12:46:36;;;;;;;12.50;7.10;;;;;;;8.27;79.96;100267.46;105901;1293;67290;-56
2023/12/31 12:49:23;;;;;;;11.00;7.20;;;;;;;8.14;80.67;100264.88;105905;1294;72379;-55
2023/12/31 12:52:09;;;;;;;;;;;;;;;8.06;80.41;100265.48;105926;1294;58853;-55
2023/12/31 12:54:55;;;;;;;11.30;7.20;;;;;;;8.00;80.25;100259.71;105929;1294;58851;-55
2023/12/31 12:57:41;;;;;;;12.60;6.60;;;;;;;7.96;80.26;100250.65;105837;1294;74592;-56
2023/12/31 13:00:27;;;;;;;17.90;7.00;;;;;;;7.94;80.80;100250.16;105801;1294;67779;-55
2023/12/31 13:03:13;;;;;;;14.30;7.50;;;;;;;7.94;80.83;100248.95;105796;1293;71113;-55
2023/12/31 13:06:02;;;;;;;16.10;7.30;;;;;;;7.88;80.21;100248.16;105772;1294;58857;-56
2023/12/31 13:08:49;;;;;;;12.90;7.10;;;;;;;7.81;80.09;100246.52;105927;1294;59523;-56
2023/12/31 13:11:35;;;;;;;14.50;6.90;;;;;;;7.66;79.30;100247.23;105871;1293;73484;-55